Calhoun, Mississippi
Current Conditions -  °F | °C
As of 2:35 AM on Sunday 23 Nov 2014 (Local Time) from KPIB Reporting Station
Overcast Overcast  
Wind Chill: 61°   Ceiling: 400
Heat Index: 61°   Visibility: 4mi
Dew Point: 55°   Wind: 6mph
Humidity: 82%   Direction: 90°E
Pressure: 29.87"   Gusts: NA
Location:  31.6875°N, 89.1116°W
Report Text: KPIB 230835Z AUTO 09005KT 4SM OVC004 16/13 A2987 RMK AO1
Loading
Personal Weather Stations






























Interactive Weather Map New forecast layout! Learn more

10-Day Weather Forecast

Advertisements
Track Severe Weather on mobile